Terminal Aerodrome Forecast
Issued by NWS Flagstaff, AZ

Home | Current Version | Previous Version | Text Only | Print | Product List | Glossary On
Versions: 1 2 3 4 5 6 7 8 9 10 11 12
000
FTUS45 KFGZ 191131
TAFFLG
TAF
KFLG 191131Z 1912/2012 VRB03KT P6SM BKN100
     FM191800 22012G19KT P6SM SCT070 BKN150
     FM200100 22006KT P6SM FEW150 SCT200=

USA.gov is the U.S. government's official web portal to all federal, state and local government web resources and services.